sensor_id;sensor_type;location;lat;lon;timestamp;pressure;altitude;pressure_sealevel;temperature;humidity
10097;BME280;5087;42.662;23.466;2022-11-20T00:00:22;94637.84;;;16.91;100.00
10097;BME280;5087;42.662;23.466;2022-11-20T00:02:50;94668.31;;;15.44;100.00
10097;BME280;5087;42.662;23.466;2022-11-20T00:05:18;94657.25;;;15.14;100.00
10097;BME280;5087;42.662;23.466;2022-11-20T00:07:47;94660.50;;;14.77;100.00
10097;BME280;5087;42.662;23.466;2022-11-20T00:10:15;94670.91;;;14.71;100.00
10097;BME280;5087;42.662;23.466;2022-11-20T00:12:42;94677.88;;;14.88;100.00
10097;BME280;5087;42.662;23.466;2022-11-20T00:15:14;94675.03;;;15.47;100.00
10097;BME280;5087;42.662;23.466;2022-11-20T00:17:41;94649.69;;;15.27;100.00
10097;BME280;5087;42.662;23.466;2022-11-20T00:20:10;94646.09;;;16.26;100.00
10097;BME280;5087;42.662;23.466;2022-11-20T00:22:38;94643.81;;;17.34;100.00
10097;BME280;5087;42.662;23.466;2022-11-20T00:25:06;94635.09;;;17.25;100.00
10097;BME280;5087;42.662;23.466;2022-11-20T00:27:33;94634.00;;;16.96;100.00
10097;BME280;5087;42.662;23.466;2022-11-20T00:30:01;94624.38;;;18.13;100.00
10097;BME280;5087;42.662;23.466;2022-11-20T00:32:30;94630.34;;;17.67;100.00
10097;BME280;5087;42.662;23.466;2022-11-20T00:34:57;94636.78;;;17.89;100.00
10097;BME280;5087;42.662;23.466;2022-11-20T00:37:24;94603.31;;;17.69;100.00
10097;BME280;5087;42.662;23.466;2022-11-20T00:39:51;94611.63;;;17.83;100.00
10097;BME280;5087;42.662;23.466;2022-11-20T00:42:18;94616.69;;;17.78;100.00
10097;BME280;5087;42.662;23.466;2022-11-20T00:44:46;94621.94;;;17.97;100.00
10097;BME280;5087;42.662;23.466;2022-11-20T00:47:13;94617.94;;;17.91;100.00
10097;BME280;5087;42.662;23.466;2022-11-20T00:49:41;94623.22;;;18.14;100.00
10097;BME280;5087;42.662;23.466;2022-11-20T00:52:09;94619.31;;;18.19;100.00
10097;BME280;5087;42.662;23.466;2022-11-20T00:54:38;94618.41;;;17.97;100.00
10097;BME280;5087;42.662;23.466;2022-11-20T00:57:05;94631.81;;;18.13;100.00
10097;BME280;5087;42.662;23.466;2022-11-20T00:59:32;94635.09;;;18.37;100.00
10097;BME280;5087;42.662;23.466;2022-11-20T01:02:00;94627.91;;;18.10;100.00
10097;BME280;5087;42.662;23.466;2022-11-20T01:04:27;94586.31;;;16.32;100.00
10097;BME280;5087;42.662;23.466;2022-11-20T01:06:56;94659.13;;;16.67;100.00
10097;BME280;5087;42.662;23.466;2022-11-20T01:09:23;94628.69;;;16.76;100.00
10097;BME280;5087;42.662;23.466;2022-11-20T01:11:50;94657.72;;;16.16;100.00
10097;BME280;5087;42.662;23.466;2022-11-20T01:14:19;94664.44;;;15.95;100.00
10097;BME280;5087;42.662;23.466;2022-11-20T01:16:48;94657.91;;;14.84;100.00
10097;BME280;5087;42.662;23.466;2022-11-20T01:19:19;94624.44;;;13.92;100.00
10097;BME280;5087;42.662;23.466;2022-11-20T01:21:50;94633.53;;;13.81;100.00
10097;BME280;5087;42.662;23.466;2022-11-20T01:24:20;94645.94;;;13.78;100.00
10097;BME280;5087;42.662;23.466;2022-11-20T01:26:50;94619.25;;;13.87;100.00
10097;BME280;5087;42.662;23.466;2022-11-20T01:29:20;94637.59;;;15.28;100.00
10097;BME280;5087;42.662;23.466;2022-11-20T01:31:48;94637.41;;;14.54;100.00
10097;BME280;5087;42.662;23.466;2022-11-20T01:34:17;94628.78;;;14.72;100.00
10097;BME280;5087;42.662;23.466;2022-11-20T01:36:48;94619.59;;;13.50;100.00
10097;BME280;5087;42.662;23.466;2022-11-20T01:39:20;94611.03;;;13.68;100.00
10097;BME280;5087;42.662;23.466;2022-11-20T01:41:50;94592.00;;;16.16;100.00
10097;BME280;5087;42.662;23.466;2022-11-20T01:44:51;94590.44;;;16.87;100.00
10097;BME280;5087;42.662;23.466;2022-11-20T01:47:24;94591.72;;;16.97;100.00
10097;BME280;5087;42.662;23.466;2022-11-20T01:49:55;94598.47;;;16.35;100.00
10097;BME280;5087;42.662;23.466;2022-11-20T01:52:26;94597.66;;;16.00;100.00
10097;BME280;5087;42.662;23.466;2022-11-20T01:55:00;94582.63;;;16.89;100.00
10097;BME280;5087;42.662;23.466;2022-11-20T01:57:31;94518.31;;;17.24;100.00
10097;BME280;5087;42.662;23.466;2022-11-20T02:00:02;94582.34;;;17.43;100.00
10097;BME280;5087;42.662;23.466;2022-11-20T02:02:39;94603.44;;;16.93;100.00
10097;BME280;5087;42.662;23.466;2022-11-20T02:05:17;94614.84;;;16.61;100.00
10097;BME280;5087;42.662;23.466;2022-11-20T02:07:46;94575.44;;;17.15;100.00
10097;BME280;5087;42.662;23.466;2022-11-20T02:10:15;94581.72;;;17.67;100.00
10097;BME280;5087;42.662;23.466;2022-11-20T02:12:43;94571.16;;;18.47;100.00
10097;BME280;5087;42.662;23.466;2022-11-20T02:15:28;94592.72;;;18.38;100.00
10097;BME280;5087;42.662;23.466;2022-11-20T02:17:55;94554.31;;;18.59;100.00
10097;BME280;5087;42.662;23.466;2022-11-20T02:20:22;94595.63;;;18.88;100.00
10097;BME280;5087;42.662;23.466;2022-11-20T02:22:54;94598.38;;;18.81;100.00
10097;BME280;5087;42.662;23.466;2022-11-20T02:25:26;94605.97;;;18.21;100.00
10097;BME280;5087;42.662;23.466;2022-11-20T02:27:55;94608.09;;;17.83;100.00
10097;BME280;5087;42.662;23.466;2022-11-20T02:30:22;94607.34;;;18.67;100.00
10097;BME280;5087;42.662;23.466;2022-11-20T02:32:50;94613.28;;;18.73;100.00
10097;BME280;5087;42.662;23.466;2022-11-20T02:35:40;94604.09;;;18.40;100.00
10097;BME280;5087;42.662;23.466;2022-11-20T02:38:08;94576.53;;;18.18;100.00
10097;BME280;5087;42.662;23.466;2022-11-20T02:40:37;94567.09;;;18.12;100.00
10097;BME280;5087;42.662;23.466;2022-11-20T02:43:04;94601.09;;;17.89;100.00
10097;BME280;5087;42.662;23.466;2022-11-20T02:45:31;94559.72;;;18.30;100.00
10097;BME280;5087;42.662;23.466;2022-11-20T02:47:59;94599.50;;;18.69;100.00
10097;BME280;5087;42.662;23.466;2022-11-20T02:50:29;94604.63;;;18.81;100.00
10097;BME280;5087;42.662;23.466;2022-11-20T02:52:56;94603.09;;;18.91;99.36
10097;BME280;5087;42.662;23.466;2022-11-20T02:55:23;94590.41;;;18.50;100.00
10097;BME280;5087;42.662;23.466;2022-11-20T02:57:56;94627.69;;;18.48;100.00
10097;BME280;5087;42.662;23.466;2022-11-20T03:00:23;94628.53;;;18.66;100.00
10097;BME280;5087;42.662;23.466;2022-11-20T03:02:50;94636.03;;;18.70;100.00
10097;BME280;5087;42.662;23.466;2022-11-20T03:05:17;94639.94;;;18.69;100.00
10097;BME280;5087;42.662;23.466;2022-11-20T03:07:48;94634.41;;;18.61;100.00
10097;BME280;5087;42.662;23.466;2022-11-20T03:10:15;94657.97;;;18.59;100.00
10097;BME280;5087;42.662;23.466;2022-11-20T03:12:42;94651.63;;;18.47;100.00
10097;BME280;5087;42.662;23.466;2022-11-20T03:15:11;94661.09;;;18.50;100.00
10097;BME280;5087;42.662;23.466;2022-11-20T03:17:38;94651.66;;;18.51;100.00
10097;BME280;5087;42.662;23.466;2022-11-20T03:20:07;94624.13;;;18.44;100.00
10097;BME280;5087;42.662;23.466;2022-11-20T03:22:34;94658.03;;;18.73;100.00
10097;BME280;5087;42.662;23.466;2022-11-20T03:25:03;94647.81;;;18.74;100.00
10097;BME280;5087;42.662;23.466;2022-11-20T03:27:32;94641.53;;;18.70;100.00
10097;BME280;5087;42.662;23.466;2022-11-20T03:30:00;94664.28;;;18.66;100.00
10097;BME280;5087;42.662;23.466;2022-11-20T03:32:29;94661.13;;;18.61;100.00
10097;BME280;5087;42.662;23.466;2022-11-20T03:34:56;94665.47;;;18.65;100.00
10097;BME280;5087;42.662;23.466;2022-11-20T03:37:24;94621.41;;;18.47;100.00
10097;BME280;5087;42.662;23.466;2022-11-20T03:39:52;94653.25;;;18.59;100.00
10097;BME280;5087;42.662;23.466;2022-11-20T03:42:19;94686.28;;;18.66;100.00
10097;BME280;5087;42.662;23.466;2022-11-20T03:45:04;94683.91;;;18.61;100.00
10097;BME280;5087;42.662;23.466;2022-11-20T03:47:33;94685.41;;;18.44;100.00
10097;BME280;5087;42.662;23.466;2022-11-20T03:50:01;94680.63;;;18.38;100.00
10097;BME280;5087;42.662;23.466;2022-11-20T03:52:28;94675.56;;;18.40;100.00
10097;BME280;5087;42.662;23.466;2022-11-20T03:54:56;94657.84;;;18.30;100.00
10097;BME280;5087;42.662;23.466;2022-11-20T03:57:23;94655.94;;;18.41;100.00
10097;BME280;5087;42.662;23.466;2022-11-20T03:59:50;94663.38;;;18.41;100.00
10097;BME280;5087;42.662;23.466;2022-11-20T04:02:17;94671.25;;;18.46;100.00
10097;BME280;5087;42.662;23.466;2022-11-20T04:04:46;94674.47;;;18.59;100.00
10097;BME280;5087;42.662;23.466;2022-11-20T04:07:17;94664.63;;;18.58;100.00
10097;BME280;5087;42.662;23.466;2022-11-20T04:09:45;94657.09;;;18.44;100.00
10097;BME280;5087;42.662;23.466;2022-11-20T04:12:12;94662.19;;;18.34;100.00
10097;BME280;5087;42.662;23.466;2022-11-20T04:14:39;94658.31;;;18.43;100.00
10097;BME280;5087;42.662;23.466;2022-11-20T04:17:07;94666.19;;;18.48;100.00
10097;BME280;5087;42.662;23.466;2022-11-20T04:19:34;94679.88;;;18.37;100.00
10097;BME280;5087;42.662;23.466;2022-11-20T04:22:04;94681.47;;;18.42;100.00
10097;BME280;5087;42.662;23.466;2022-11-20T04:24:31;94679.09;;;18.44;100.00
10097;BME280;5087;42.662;23.466;2022-11-20T04:27:00;94678.75;;;18.49;100.00
10097;BME280;5087;42.662;23.466;2022-11-20T04:29:27;94690.09;;;18.47;100.00
10097;BME280;5087;42.662;23.466;2022-11-20T04:31:55;94675.09;;;18.30;100.00
10097;BME280;5087;42.662;23.466;2022-11-20T04:34:22;94692.81;;;18.40;100.00
10097;BME280;5087;42.662;23.466;2022-11-20T04:36:49;94692.00;;;18.32;100.00
10097;BME280;5087;42.662;23.466;2022-11-20T04:39:18;94668.81;;;18.26;100.00
10097;BME280;5087;42.662;23.466;2022-11-20T04:41:46;94678.22;;;18.25;100.00
10097;BME280;5087;42.662;23.466;2022-11-20T04:44:13;94695.81;;;18.13;100.00
10097;BME280;5087;42.662;23.466;2022-11-20T04:46:42;94691.44;;;18.05;100.00
10097;BME280;5087;42.662;23.466;2022-11-20T04:49:10;94707.81;;;17.94;100.00
10097;BME280;5087;42.662;23.466;2022-11-20T04:51:38;94711.72;;;17.93;100.00
10097;BME280;5087;42.662;23.466;2022-11-20T04:54:06;94694.38;;;17.85;100.00
10097;BME280;5087;42.662;23.466;2022-11-20T04:56:35;94679.06;;;17.77;100.00
10097;BME280;5087;42.662;23.466;2022-11-20T04:59:02;94673.16;;;17.79;100.00
10097;BME280;5087;42.662;23.466;2022-11-20T05:01:29;94678.66;;;17.79;100.00
10097;BME280;5087;42.662;23.466;2022-11-20T05:03:58;94650.31;;;17.67;100.00
10097;BME280;5087;42.662;23.466;2022-11-20T05:06:25;94678.28;;;17.80;100.00
10097;BME280;5087;42.662;23.466;2022-11-20T05:08:53;94674.28;;;17.70;100.00
10097;BME280;5087;42.662;23.466;2022-11-20T05:11:21;94692.38;;;17.79;100.00
10097;BME280;5087;42.662;23.466;2022-11-20T05:13:58;94666.00;;;17.63;100.00
10097;BME280;5087;42.662;23.466;2022-11-20T05:16:26;94697.47;;;17.77;100.00
10097;BME280;5087;42.662;23.466;2022-11-20T05:18:53;94691.91;;;17.28;100.00
10097;BME280;5087;42.662;23.466;2022-11-20T05:21:21;94682.75;;;16.79;100.00
10097;BME280;5087;42.662;23.466;2022-11-20T05:23:49;94696.31;;;16.68;100.00
10097;BME280;5087;42.662;23.466;2022-11-20T05:26:22;94645.00;;;16.31;100.00
10097;BME280;5087;42.662;23.466;2022-11-20T05:28:50;94674.94;;;16.47;100.00
10097;BME280;5087;42.662;23.466;2022-11-20T05:31:24;94670.25;;;16.48;100.00
10097;BME280;5087;42.662;23.466;2022-11-20T05:33:52;94639.50;;;16.31;100.00
10097;BME280;5087;42.662;23.466;2022-11-20T05:36:23;94645.00;;;16.31;100.00
10097;BME280;5087;42.662;23.466;2022-11-20T05:38:50;94650.47;;;16.31;100.00
10097;BME280;5087;42.662;23.466;2022-11-20T05:41:19;94650.25;;;16.43;100.00
10097;BME280;5087;42.662;23.466;2022-11-20T05:43:47;94653.06;;;16.51;100.00
10097;BME280;5087;42.662;23.466;2022-11-20T05:46:18;94627.81;;;16.34;100.00
10097;BME280;5087;42.662;23.466;2022-11-20T05:48:47;94604.72;;;16.32;100.00
10097;BME280;5087;42.662;23.466;2022-11-20T05:51:17;94643.75;;;16.59;100.00
10097;BME280;5087;42.662;23.466;2022-11-20T05:53:48;94595.28;;;16.29;100.00
10097;BME280;5087;42.662;23.466;2022-11-20T05:56:17;94620.50;;;16.45;100.00
10097;BME280;5087;42.662;23.466;2022-11-20T05:58:49;94633.22;;;16.61;100.00
10097;BME280;5087;42.662;23.466;2022-11-20T06:01:18;94621.03;;;16.55;100.00
10097;BME280;5087;42.662;23.466;2022-11-20T06:03:52;94594.75;;;16.16;100.00
10097;BME280;5087;42.662;23.466;2022-11-20T06:06:20;94636.19;;;16.45;100.00
10097;BME280;5087;42.662;23.466;2022-11-20T06:08:48;94626.25;;;16.33;100.00
10097;BME280;5087;42.662;23.466;2022-11-20T06:11:16;94644.25;;;16.34;100.00
10097;BME280;5087;42.662;23.466;2022-11-20T06:13:47;94653.72;;;16.40;100.00
10097;BME280;5087;42.662;23.466;2022-11-20T06:16:18;94654.44;;;16.37;100.00
10097;BME280;5087;42.662;23.466;2022-11-20T06:18:46;94644.66;;;16.36;100.00
10097;BME280;5087;42.662;23.466;2022-11-20T06:21:17;94636.59;;;16.17;100.00
10097;BME280;5087;42.662;23.466;2022-11-20T06:23:46;94623.13;;;16.04;100.00
10097;BME280;5087;42.662;23.466;2022-11-20T06:26:15;94623.22;;;16.42;100.00
10097;BME280;5087;42.662;23.466;2022-11-20T06:28:42;94624.06;;;16.46;100.00
10097;BME280;5087;42.662;23.466;2022-11-20T06:31:11;94626.22;;;16.67;100.00
10097;BME280;5087;42.662;23.466;2022-11-20T06:33:39;94620.59;;;16.53;100.00
10097;BME280;5087;42.662;23.466;2022-11-20T06:36:06;94639.81;;;16.56;100.00
10097;BME280;5087;42.662;23.466;2022-11-20T06:38:36;94603.47;;;16.29;100.00
10097;BME280;5087;42.662;23.466;2022-11-20T06:41:04;94664.13;;;16.58;100.00
10097;BME280;5087;42.662;23.466;2022-11-20T06:43:31;94636.63;;;16.51;100.00
10097;BME280;5087;42.662;23.466;2022-11-20T06:45:59;94649.81;;;16.75;100.00
10097;BME280;5087;42.662;23.466;2022-11-20T06:48:27;94624.06;;;16.84;100.00
10097;BME280;5087;42.662;23.466;2022-11-20T06:50:56;94654.91;;;17.07;100.00
10097;BME280;5087;42.662;23.466;2022-11-20T06:53:24;94592.34;;;16.83;100.00
10097;BME280;5087;42.662;23.466;2022-11-20T06:55:56;94670.19;;;17.08;100.00
10097;BME280;5087;42.662;23.466;2022-11-20T06:58:25;94664.69;;;17.08;100.00
10097;BME280;5087;42.662;23.466;2022-11-20T07:00:53;94675.66;;;17.08;100.00
10097;BME280;5087;42.662;23.466;2022-11-20T07:03:22;94678.09;;;17.17;100.00
10097;BME280;5087;42.662;23.466;2022-11-20T07:05:51;94671.81;;;17.13;100.00
10097;BME280;5087;42.662;23.466;2022-11-20T07:08:18;94658.72;;;16.99;100.00
10097;BME280;5087;42.662;23.466;2022-11-20T07:10:46;94622.88;;;16.81;100.00
10097;BME280;5087;42.662;23.466;2022-11-20T07:13:15;94658.53;;;17.19;100.00
10097;BME280;5087;42.662;23.466;2022-11-20T07:15:42;94671.50;;;17.22;100.00
10097;BME280;5087;42.662;23.466;2022-11-20T07:18:10;94684.13;;;17.30;100.00
10097;BME280;5087;42.662;23.466;2022-11-20T07:20:37;94686.16;;;17.37;100.00
10097;BME280;5087;42.662;23.466;2022-11-20T07:23:04;94671.22;;;17.34;100.00
10097;BME280;5087;42.662;23.466;2022-11-20T07:25:31;94679.09;;;17.39;100.00
10097;BME280;5087;42.662;23.466;2022-11-20T07:27:59;94629.53;;;17.18;100.00
10097;BME280;5087;42.662;23.466;2022-11-20T07:30:31;94658.88;;;17.55;100.00
10097;BME280;5087;42.662;23.466;2022-11-20T07:32:58;94646.91;;;17.33;100.00
10097;BME280;5087;42.662;23.466;2022-11-20T07:35:25;94679.25;;;17.58;100.00
10097;BME280;5087;42.662;23.466;2022-11-20T07:37:53;94682.00;;;17.58;100.00
10097;BME280;5087;42.662;23.466;2022-11-20T07:40:20;94693.34;;;17.52;100.00
10097;BME280;5087;42.662;23.466;2022-11-20T07:42:48;94684.91;;;17.76;100.00
10097;BME280;5087;42.662;23.466;2022-11-20T07:45:16;94659.69;;;17.63;100.00
10097;BME280;5087;42.662;23.466;2022-11-20T07:47:47;94674.75;;;17.80;100.00
10097;BME280;5087;42.662;23.466;2022-11-20T07:50:17;94671.06;;;17.61;100.00
10097;BME280;5087;42.662;23.466;2022-11-20T07:52:48;94678.94;;;17.66;100.00
10097;BME280;5087;42.662;23.466;2022-11-20T07:55:25;94621.81;;;17.31;100.00
10097;BME280;5087;42.662;23.466;2022-11-20T07:57:54;94668.31;;;17.61;100.00
10097;BME280;5087;42.662;23.466;2022-11-20T08:00:23;94690.03;;;17.77;100.00
10097;BME280;5087;42.662;23.466;2022-11-20T08:02:54;94666.69;;;17.53;100.00
10097;BME280;5087;42.662;23.466;2022-11-20T08:05:25;94694.19;;;17.60;100.00
10097;BME280;5087;42.662;23.466;2022-11-20T08:08:01;94706.75;;;17.61;100.00
10097;BME280;5087;42.662;23.466;2022-11-20T08:10:28;94683.47;;;17.44;100.00
10097;BME280;5087;42.662;23.466;2022-11-20T08:12:56;94700.34;;;17.46;100.00
10097;BME280;5087;42.662;23.466;2022-11-20T08:15:41;94693.91;;;17.31;100.00
10097;BME280;5087;42.662;23.466;2022-11-20T08:18:12;94670.41;;;17.30;100.00
10097;BME280;5087;42.662;23.466;2022-11-20T08:20:40;94681.31;;;17.23;100.00
10097;BME280;5087;42.662;23.466;2022-11-20T08:23:07;94669.56;;;17.22;100.00
10097;BME280;5087;42.662;23.466;2022-11-20T08:25:36;94685.38;;;17.40;100.00
10097;BME280;5087;42.662;23.466;2022-11-20T08:28:05;94668.03;;;17.29;100.00
10097;BME280;5087;42.662;23.466;2022-11-20T08:30:32;94691.06;;;17.58;100.00
10097;BME280;5087;42.662;23.466;2022-11-20T08:33:01;94688.72;;;17.64;100.00
10097;BME280;5087;42.662;23.466;2022-11-20T08:35:33;94689.31;;;17.39;100.00
10097;BME280;5087;42.662;23.466;2022-11-20T08:38:00;94682.28;;;16.70;100.00
10097;BME280;5087;42.662;23.466;2022-11-20T08:40:28;94697.69;;;16.51;100.00
10097;BME280;5087;42.662;23.466;2022-11-20T08:42:55;94699.09;;;16.38;100.00
10097;BME280;5087;42.662;23.466;2022-11-20T08:45:26;94695.72;;;16.21;100.00
10097;BME280;5087;42.662;23.466;2022-11-20T08:48:00;94688.50;;;16.09;100.00
10097;BME280;5087;42.662;23.466;2022-11-20T08:50:33;94692.91;;;15.91;100.00
10097;BME280;5087;42.662;23.466;2022-11-20T08:53:04;94695.84;;;15.78;100.00
10097;BME280;5087;42.662;23.466;2022-11-20T08:55:31;94680.66;;;15.58;100.00
10097;BME280;5087;42.662;23.466;2022-11-20T08:58:03;94689.78;;;15.42;100.00
10097;BME280;5087;42.662;23.466;2022-11-20T09:00:31;94732.94;;;15.52;100.00
10097;BME280;5087;42.662;23.466;2022-11-20T09:02:58;94748.75;;;15.63;100.00
10097;BME280;5087;42.662;23.466;2022-11-20T09:05:26;94730.19;;;15.52;100.00
10097;BME280;5087;42.662;23.466;2022-11-20T09:07:57;94755.69;;;15.57;100.00
10097;BME280;5087;42.662;23.466;2022-11-20T09:10:25;94693.31;;;15.19;100.00
10097;BME280;5087;42.662;23.466;2022-11-20T09:12:53;94722.25;;;15.44;100.00
10097;BME280;5087;42.662;23.466;2022-11-20T09:15:21;94734.22;;;15.59;100.00
10097;BME280;5087;42.662;23.466;2022-11-20T09:17:51;94716.63;;;15.60;100.00
10097;BME280;5087;42.662;23.466;2022-11-20T09:20:20;94730.59;;;15.74;100.00
10097;BME280;5087;42.662;23.466;2022-11-20T09:22:51;94728.56;;;15.71;100.00
10097;BME280;5087;42.662;23.466;2022-11-20T09:25:32;94738.91;;;15.81;100.00
10097;BME280;5087;42.662;23.466;2022-11-20T09:28:12;94740.22;;;15.68;100.00
10097;BME280;5087;42.662;23.466;2022-11-20T09:31:06;94728.09;;;15.42;100.00
10097;BME280;5087;42.662;23.466;2022-11-20T09:34:23;94714.38;;;15.19;100.00
10097;BME280;5087;42.662;23.466;2022-11-20T09:36:57;94749.56;;;15.21;100.00
10097;BME280;5087;42.662;23.466;2022-11-20T09:39:39;94715.41;;;14.91;100.00
10097;BME280;5087;42.662;23.466;2022-11-20T09:42:32;94743.53;;;15.11;100.00
10097;BME280;5087;42.662;23.466;2022-11-20T09:45:25;94735.78;;;14.74;100.00
10097;BME280;5087;42.662;23.466;2022-11-20T09:48:53;94734.41;;;14.48;100.00
10097;BME280;5087;42.662;23.466;2022-11-20T09:54:57;94728.69;;;14.18;100.00
10097;BME280;5087;42.662;23.466;2022-11-20T09:57:49;94751.00;;;14.04;100.00
10097;BME280;5087;42.662;23.466;2022-11-20T10:00:27;94727.50;;;13.67;100.00
10097;BME280;5087;42.662;23.466;2022-11-20T10:03:16;94774.16;;;13.62;100.00
10097;BME280;5087;42.662;23.466;2022-11-20T10:09:59;94740.09;;;13.11;100.00
10097;BME280;5087;42.662;23.466;2022-11-20T10:19:37;94722.97;;;13.11;100.00
10097;BME280;5087;42.662;23.466;2022-11-20T10:22:53;94729.81;;;13.05;100.00
10097;BME280;5087;42.662;23.466;2022-11-20T10:25:56;94724.16;;;12.97;100.00
10097;BME280;5087;42.662;23.466;2022-11-20T10:28:49;94714.44;;;12.84;100.00
10097;BME280;5087;42.662;23.466;2022-11-20T10:31:41;94714.63;;;12.91;100.00
10097;BME280;5087;42.662;23.466;2022-11-20T10:34:54;94712.28;;;12.90;100.00
10097;BME280;5087;42.662;23.466;2022-11-20T10:37:47;94721.25;;;12.90;100.00
10097;BME280;5087;42.662;23.466;2022-11-20T10:40:37;94722.81;;;12.91;100.00
10097;BME280;5087;42.662;23.466;2022-11-20T10:43:13;94726.44;;;12.95;100.00
10097;BME280;5087;42.662;23.466;2022-11-20T10:45:49;94696.72;;;12.90;100.00
10097;BME280;5087;42.662;23.466;2022-11-20T10:51:35;94676.66;;;12.82;100.00
10097;BME280;5087;42.662;23.466;2022-11-20T10:54:24;94712.16;;;13.14;100.00
10097;BME280;5087;42.662;23.466;2022-11-20T10:57:23;94702.22;;;13.22;100.00
10097;BME280;5087;42.662;23.466;2022-11-20T11:00:19;94698.41;;;13.39;100.00
10097;BME280;5087;42.662;23.466;2022-11-20T11:02:51;94715.44;;;13.36;100.00
10097;BME280;5087;42.662;23.466;2022-11-20T11:05:47;94713.72;;;13.44;100.00
10097;BME280;5087;42.662;23.466;2022-11-20T11:08:54;94728.66;;;13.50;100.00
10097;BME280;5087;42.662;23.466;2022-11-20T11:12:00;94738.69;;;13.46;100.00
10097;BME280;5087;42.662;23.466;2022-11-20T11:15:11;94748.72;;;13.42;100.00
10097;BME280;5087;42.662;23.466;2022-11-20T11:17:53;94773.34;;;13.61;100.00
10097;BME280;5087;42.662;23.466;2022-11-20T11:20:50;94775.91;;;13.54;100.00
10097;BME280;5087;42.662;23.466;2022-11-20T11:23:40;94765.75;;;13.39;100.00
10097;BME280;5087;42.662;23.466;2022-11-20T11:26:22;94769.03;;;13.16;100.00
10097;BME280;5087;42.662;23.466;2022-11-20T11:29:15;94794.88;;;13.22;100.00
10097;BME280;5087;42.662;23.466;2022-11-20T11:32:17;94769.28;;;13.11;100.00
10097;BME280;5087;42.662;23.466;2022-11-20T11:35:02;94765.25;;;13.21;100.00
10097;BME280;5087;42.662;23.466;2022-11-20T11:37:40;94774.34;;;12.96;100.00
10097;BME280;5087;42.662;23.466;2022-11-20T11:40:18;94777.66;;;13.18;100.00
10097;BME280;5087;42.662;23.466;2022-11-20T11:43:36;94797.00;;;13.13;100.00
10097;BME280;5087;42.662;23.466;2022-11-20T11:46:28;94796.03;;;12.93;100.00
10097;BME280;5087;42.662;23.466;2022-11-20T11:48:58;94790.09;;;12.62;100.00
10097;BME280;5087;42.662;23.466;2022-11-20T11:51:59;94829.88;;;12.92;100.00
10097;BME280;5087;42.662;23.466;2022-11-20T11:55:00;94817.28;;;12.87;100.00
10097;BME280;5087;42.662;23.466;2022-11-20T12:00:56;94780.63;;;12.85;100.00
10097;BME280;5087;42.662;23.466;2022-11-20T12:03:52;94773.50;;;13.08;100.00
10097;BME280;5087;42.662;23.466;2022-11-20T12:07:01;94751.28;;;13.22;100.00
10097;BME280;5087;42.662;23.466;2022-11-20T12:09:57;94743.81;;;13.19;100.00
10097;BME280;5087;42.662;23.466;2022-11-20T12:12:43;94741.84;;;13.04;100.00
10097;BME280;5087;42.662;23.466;2022-11-20T12:15:39;94711.88;;;12.75;100.00
10097;BME280;5087;42.662;23.466;2022-11-20T12:18:36;94745.16;;;12.69;100.00
10097;BME280;5087;42.662;23.466;2022-11-20T12:21:17;94760.66;;;12.52;100.00
10097;BME280;5087;42.662;23.466;2022-11-20T12:24:10;94757.00;;;12.48;100.00
10097;BME280;5087;42.662;23.466;2022-11-20T12:27:14;94771.75;;;12.47;100.00
10097;BME280;5087;42.662;23.466;2022-11-20T12:30:07;94762.81;;;12.34;100.00
10097;BME280;5087;42.662;23.466;2022-11-20T12:36:23;94757.84;;;12.24;100.00
10097;BME280;5087;42.662;23.466;2022-11-20T12:39:26;94750.69;;;12.31;100.00
10097;BME280;5087;42.662;23.466;2022-11-20T12:46:14;94757.09;;;11.98;100.00
10097;BME280;5087;42.662;23.466;2022-11-20T12:49:00;94709.13;;;11.94;100.00
10097;BME280;5087;42.662;23.466;2022-11-20T12:51:58;94713.31;;;11.91;100.00
10097;BME280;5087;42.662;23.466;2022-11-20T12:55:04;94690.66;;;11.87;100.00
10097;BME280;5087;42.662;23.466;2022-11-20T12:57:49;94684.63;;;11.94;100.00
10097;BME280;5087;42.662;23.466;2022-11-20T13:00:25;94679.44;;;12.01;100.00
10097;BME280;5087;42.662;23.466;2022-11-20T13:03:27;94679.09;;;12.02;100.00
10097;BME280;5087;42.662;23.466;2022-11-20T13:06:27;94664.47;;;11.95;100.00
10097;BME280;5087;42.662;23.466;2022-11-20T13:09:15;94662.31;;;12.00;100.00
10097;BME280;5087;42.662;23.466;2022-11-20T13:11:47;94663.19;;;11.92;100.00
10097;BME280;5087;42.662;23.466;2022-11-20T13:14:29;94654.16;;;11.88;100.00
10097;BME280;5087;42.662;23.466;2022-11-20T13:17:01;94658.91;;;11.91;100.00
10097;BME280;5087;42.662;23.466;2022-11-20T13:19:32;94665.28;;;11.83;100.00
10097;BME280;5087;42.662;23.466;2022-11-20T13:22:00;94669.13;;;12.07;100.00
10097;BME280;5087;42.662;23.466;2022-11-20T13:24:32;94690.22;;;11.97;100.00
10097;BME280;5087;42.662;23.466;2022-11-20T13:27:04;94685.91;;;11.59;100.00
10097;BME280;5087;42.662;23.466;2022-11-20T13:29:32;94685.88;;;11.34;100.00
10097;BME280;5087;42.662;23.466;2022-11-20T13:32:04;94654.59;;;11.03;100.00
10097;BME280;5087;42.662;23.466;2022-11-20T13:34:33;94684.50;;;11.16;100.00
10097;BME280;5087;42.662;23.466;2022-11-20T13:37:01;94711.13;;;11.22;100.00
10097;BME280;5087;42.662;23.466;2022-11-20T13:39:32;94707.09;;;11.41;100.00
10097;BME280;5087;42.662;23.466;2022-11-20T13:42:01;94721.03;;;11.52;100.00
10097;BME280;5087;42.662;23.466;2022-11-20T13:44:35;94716.94;;;11.70;100.00
10097;BME280;5087;42.662;23.466;2022-11-20T13:47:19;94698.00;;;11.74;100.00
10097;BME280;5087;42.662;23.466;2022-11-20T13:49:48;94701.19;;;11.76;100.00
10097;BME280;5087;42.662;23.466;2022-11-20T13:52:31;94697.13;;;11.70;100.00
10097;BME280;5087;42.662;23.466;2022-11-20T13:55:13;94697.09;;;11.82;100.00